createdAt,value
2022-10-12T00:01:09.616Z,23.38
2022-10-12T00:03:37.728Z,23.13
2022-10-12T00:06:34.173Z,22.70
2022-10-12T00:09:01.421Z,25.48
2022-10-12T00:11:30.446Z,23.95
2022-10-12T00:13:59.200Z,22.67
2022-10-12T00:16:31.167Z,23.25
2022-10-12T00:18:59.571Z,21.25
2022-10-12T00:21:30.012Z,20.40
2022-10-12T00:24:00.772Z,20.38
2022-10-12T00:26:29.269Z,21.70
2022-10-12T00:29:02.280Z,20.58
2022-10-12T00:31:31.381Z,21.83
2022-10-12T00:34:02.573Z,21.20
2022-10-12T00:36:35.036Z,21.48
2022-10-12T00:39:07.460Z,20.25
2022-10-12T00:41:44.446Z,21.00
2022-10-12T00:44:51.410Z,20.38
2022-10-12T00:50:30.137Z,19.10
2022-10-12T00:55:45.167Z,19.48
2022-10-12T00:58:13.028Z,18.25
2022-10-12T01:00:42.949Z,17.67
2022-10-12T01:03:16.949Z,19.20
2022-10-12T01:05:44.183Z,18.60
2022-10-12T01:08:11.424Z,18.60
2022-10-12T01:10:38.717Z,17.27
2022-10-12T01:13:06.953Z,18.02
2022-10-12T01:15:41.411Z,16.90
2022-10-12T01:18:51.069Z,17.10
2022-10-12T01:21:22.995Z,16.60
2022-10-12T01:24:28.496Z,17.35
2022-10-12T01:27:32.572Z,16.83
2022-10-12T01:30:07.220Z,17.83
2022-10-12T01:33:16.964Z,17.25
2022-10-12T01:36:22.901Z,17.48
2022-10-12T01:39:20.717Z,18.08
2022-10-12T01:41:59.333Z,18.10
2022-10-12T01:44:27.281Z,17.67
2022-10-12T01:46:56.418Z,16.17
2022-10-12T01:49:31.228Z,17.55
2022-10-12T01:52:30.974Z,16.30
2022-10-12T01:55:44.684Z,17.20
2022-10-12T01:59:00.134Z,15.82
2022-10-12T02:01:40.137Z,16.83
2022-10-12T02:04:39.866Z,16.85
2022-10-12T02:07:20.421Z,16.10
2022-10-12T02:09:48.624Z,15.93
2022-10-12T02:12:23.828Z,16.42
2022-10-12T02:14:58.829Z,17.90
2022-10-12T02:17:26.682Z,16.30
2022-10-12T02:20:00.556Z,16.20
2022-10-12T02:22:35.740Z,16.77
2022-10-12T02:25:12.331Z,16.67
2022-10-12T02:27:48.239Z,17.10
2022-10-12T02:30:15.707Z,16.27
2022-10-12T02:33:07.618Z,16.98
2022-10-12T02:35:46.106Z,16.08
2022-10-12T02:38:55.300Z,18.13
2022-10-12T02:41:36.938Z,17.00
2022-10-12T02:44:11.754Z,17.00
2022-10-12T02:46:41.390Z,17.13
2022-10-12T02:49:10.035Z,17.05
2022-10-12T02:51:38.938Z,17.30
2022-10-12T02:54:06.153Z,16.63
2022-10-12T02:56:33.345Z,17.65
2022-10-12T02:59:00.474Z,18.50
2022-10-12T03:01:27.708Z,17.45
2022-10-12T03:03:55.013Z,19.08
2022-10-12T03:06:22.316Z,20.42
2022-10-12T03:08:49.497Z,19.10
2022-10-12T03:11:16.872Z,19.58
2022-10-12T03:13:44.087Z,17.85
2022-10-12T03:16:12.313Z,17.58
2022-10-12T03:18:40.111Z,19.48
2022-10-12T03:21:07.352Z,19.45
2022-10-12T03:23:34.532Z,20.77
2022-10-12T03:26:01.959Z,18.85
2022-10-12T03:28:29.918Z,20.40
2022-10-12T03:30:58.090Z,21.20
2022-10-12T03:33:25.779Z,21.48
2022-10-12T03:35:53.105Z,22.17
2022-10-12T03:38:20.716Z,23.75
2022-10-12T03:40:48.040Z,23.95
2022-10-12T03:43:15.380Z,24.35
2022-10-12T03:45:42.976Z,24.98
2022-10-12T03:48:10.526Z,26.85
2022-10-12T03:50:37.806Z,26.23
2022-10-12T03:53:06.706Z,24.95
2022-10-12T03:55:34.362Z,23.83
2022-10-12T03:58:01.589Z,25.30
2022-10-12T04:00:28.954Z,22.75
2022-10-12T04:02:56.628Z,22.73
2022-10-12T04:05:23.992Z,21.77
2022-10-12T04:07:51.728Z,21.40
2022-10-12T04:10:19.308Z,21.02
2022-10-12T04:12:47.506Z,20.10
2022-10-12T04:15:15.285Z,18.90
2022-10-12T04:17:42.600Z,19.67
2022-10-12T04:20:11.452Z,20.15
2022-10-12T04:22:39.976Z,21.13
2022-10-12T04:25:08.077Z,19.70
2022-10-12T04:27:35.435Z,20.38
2022-10-12T04:30:04.105Z,20.50
2022-10-12T04:32:31.259Z,18.90
2022-10-12T04:34:58.401Z,20.10
2022-10-12T04:37:27.996Z,20.30
2022-10-12T04:39:55.276Z,18.73
2022-10-12T04:42:22.594Z,19.90
2022-10-12T04:44:49.812Z,19.08
2022-10-12T04:47:17.000Z,20.23
2022-10-12T04:49:44.304Z,20.60
2022-10-12T04:52:11.515Z,20.85
2022-10-12T04:54:38.757Z,19.50
2022-10-12T04:57:05.986Z,20.90
2022-10-12T04:59:33.120Z,21.42
2022-10-12T05:02:00.567Z,20.77
2022-10-12T05:04:27.990Z,20.95
2022-10-12T05:06:55.292Z,21.27
2022-10-12T05:09:22.521Z,22.33
2022-10-12T05:11:49.789Z,20.02
2022-10-12T05:14:17.035Z,18.92
2022-10-12T05:16:44.258Z,19.58
2022-10-12T05:19:11.572Z,20.23
2022-10-12T05:21:40.252Z,18.95
2022-10-12T05:24:08.921Z,19.48
2022-10-12T05:26:36.182Z,19.45
2022-10-12T05:29:03.712Z,19.92
2022-10-12T05:31:30.946Z,20.08
2022-10-12T05:33:58.233Z,17.95
2022-10-12T05:36:25.555Z,19.02
2022-10-12T05:38:52.780Z,19.65
2022-10-12T05:41:19.984Z,20.15
2022-10-12T05:43:47.570Z,18.75
2022-10-12T05:46:14.794Z,18.80
2022-10-12T05:48:42.069Z,17.83
2022-10-12T05:51:09.236Z,19.23
2022-10-12T05:53:36.428Z,18.63
2022-10-12T05:56:04.189Z,20.38
2022-10-12T05:58:31.904Z,19.98
2022-10-12T06:01:12.921Z,19.13
2022-10-12T06:03:40.655Z,18.27
2022-10-12T06:06:08.211Z,22.13
2022-10-12T06:08:36.036Z,20.23
2022-10-12T06:11:04.352Z,21.92
2022-10-12T06:13:31.739Z,22.30
2022-10-12T06:15:59.007Z,20.52
2022-10-12T06:18:26.269Z,19.55
2022-10-12T06:21:14.863Z,17.02
2022-10-12T06:23:42.558Z,18.67
2022-10-12T06:26:09.693Z,19.33
2022-10-12T06:28:36.969Z,16.55
2022-10-12T06:31:04.379Z,17.52
2022-10-12T06:33:31.580Z,16.75
2022-10-12T06:35:58.832Z,17.20
2022-10-12T06:38:26.233Z,16.02
2022-10-12T06:40:53.594Z,16.70
2022-10-12T06:43:22.760Z,16.13
2022-10-12T06:45:50.595Z,16.55
2022-10-12T06:48:18.918Z,16.52
2022-10-12T06:50:47.283Z,17.08
2022-10-12T06:53:14.736Z,16.27
2022-10-12T06:55:42.082Z,15.80
2022-10-12T06:58:09.415Z,16.27
2022-10-12T07:00:37.637Z,15.50
2022-10-12T07:03:05.349Z,14.95
2022-10-12T07:05:32.640Z,15.10
2022-10-12T07:07:59.777Z,14.48
2022-10-12T07:10:28.125Z,14.88
2022-10-12T07:12:55.357Z,14.05
2022-10-12T07:15:22.593Z,16.70
2022-10-12T07:17:50.164Z,15.75
2022-10-12T07:20:17.583Z,15.52
2022-10-12T07:22:44.856Z,14.93
2022-10-12T07:25:12.217Z,14.38
2022-10-12T07:27:40.063Z,14.25
2022-10-12T07:30:09.282Z,15.57
2022-10-12T07:32:36.456Z,14.68
2022-10-12T07:35:04.295Z,15.60
2022-10-12T07:37:31.537Z,16.70
2022-10-12T07:39:58.709Z,16.25
2022-10-12T07:42:25.845Z,16.55
2022-10-12T07:44:53.167Z,16.40
2022-10-12T07:47:20.606Z,16.75
2022-10-12T07:49:47.925Z,15.85
2022-10-12T07:52:15.186Z,16.40
2022-10-12T07:54:42.900Z,17.60
2022-10-12T07:57:10.189Z,16.60
2022-10-12T07:59:37.820Z,17.10
2022-10-12T08:02:05.098Z,15.85
2022-10-12T08:04:32.413Z,20.05
2022-10-12T08:06:59.861Z,17.73
2022-10-12T08:09:26.986Z,17.83
2022-10-12T08:11:56.011Z,18.20
2022-10-12T08:14:23.359Z,17.67
2022-10-12T08:16:50.571Z,17.13
2022-10-12T08:19:17.849Z,17.90
2022-10-12T08:21:45.080Z,18.35
2022-10-12T08:24:13.242Z,18.10
2022-10-12T08:26:40.560Z,18.27
2022-10-12T08:29:09.756Z,17.85
2022-10-12T08:31:37.032Z,17.17
2022-10-12T08:34:05.068Z,17.30
2022-10-12T08:36:32.740Z,17.05
2022-10-12T08:39:00.127Z,17.73
2022-10-12T08:42:08.534Z,16.52
2022-10-12T08:45:17.939Z,17.17
2022-10-12T08:47:59.284Z,17.58
2022-10-12T08:50:42.759Z,17.55
2022-10-12T08:53:22.735Z,16.23
2022-10-12T08:55:50.049Z,17.65
2022-10-12T08:58:23.377Z,17.17
2022-10-12T09:01:27.183Z,17.08
2022-10-12T09:04:36.977Z,17.83
2022-10-12T09:07:25.803Z,17.20
2022-10-12T09:10:32.920Z,16.27
2022-10-12T09:13:35.932Z,16.58
2022-10-12T09:16:25.005Z,17.15
2022-10-12T09:19:20.798Z,17.35
2022-10-12T09:21:50.416Z,17.83
2022-10-12T09:24:26.885Z,17.85
2022-10-12T09:27:03.012Z,17.73
2022-10-12T09:29:32.101Z,16.20
2022-10-12T09:32:31.337Z,16.38
2022-10-12T09:34:59.832Z,15.02
2022-10-12T09:37:31.909Z,16.27
2022-10-12T09:39:59.825Z,15.23
2022-10-12T09:42:27.190Z,14.40
2022-10-12T09:45:14.997Z,16.65
2022-10-12T09:47:42.472Z,15.10
2022-10-12T09:50:09.683Z,15.35
2022-10-12T09:52:36.770Z,16.02
2022-10-12T09:58:02.788Z,16.00
2022-10-12T10:00:34.193Z,14.45
2022-10-12T10:03:03.490Z,14.88
2022-10-12T10:05:37.757Z,12.90
2022-10-12T10:08:13.976Z,14.30
2022-10-12T10:10:59.588Z,12.80
2022-10-12T10:13:31.620Z,13.85
2022-10-12T10:16:05.221Z,14.45
2022-10-12T10:18:50.976Z,15.70
2022-10-12T10:21:47.836Z,14.43
2022-10-12T10:24:34.146Z,14.35
2022-10-12T10:27:05.408Z,15.23
2022-10-12T10:29:32.468Z,15.90
2022-10-12T10:32:26.211Z,15.98
2022-10-12T10:35:21.183Z,16.20
2022-10-12T10:37:58.212Z,14.80
2022-10-12T10:40:31.448Z,13.75
2022-10-12T10:43:20.661Z,15.57
2022-10-12T10:45:56.603Z,14.60
2022-10-12T10:48:48.546Z,14.70
2022-10-12T10:51:15.722Z,14.52
2022-10-12T10:53:50.243Z,15.82
2022-10-12T10:56:31.897Z,15.00
2022-10-12T10:59:39.433Z,15.75
2022-10-12T11:02:58.241Z,16.38
2022-10-12T11:05:50.466Z,16.35
2022-10-12T11:08:31.172Z,16.00
2022-10-12T11:11:11.469Z,15.40
2022-10-12T11:13:48.208Z,15.90
2022-10-12T11:16:34.595Z,17.23
2022-10-12T11:19:34.297Z,15.70
2022-10-12T11:22:19.385Z,16.02
2022-10-12T11:25:58.205Z,15.32
2022-10-12T11:28:31.212Z,15.63
2022-10-12T11:30:59.073Z,16.85
2022-10-12T11:33:39.585Z,15.48
2022-10-12T11:36:13.625Z,16.38
2022-10-12T11:38:54.548Z,16.55
2022-10-12T11:42:20.464Z,16.55
2022-10-12T11:44:47.729Z,17.27
2022-10-12T11:47:44.038Z,16.13
2022-10-12T11:50:35.358Z,16.48
2022-10-12T11:53:08.794Z,15.80
2022-10-12T11:56:19.684Z,16.23
2022-10-12T11:59:00.536Z,16.63
2022-10-12T12:01:46.233Z,17.63
2022-10-12T12:04:41.573Z,17.52
2022-10-12T12:10:27.788Z,15.95
2022-10-12T12:13:14.741Z,16.35
2022-10-12T12:15:52.523Z,17.88
2022-10-12T12:18:28.680Z,16.88
2022-10-12T12:21:10.133Z,17.70
2022-10-12T12:23:53.498Z,18.80
2022-10-12T12:26:27.811Z,17.20
2022-10-12T12:29:24.850Z,17.23
2022-10-12T12:32:01.151Z,17.13
2022-10-12T12:34:28.660Z,16.63
2022-10-12T12:36:57.994Z,16.73
2022-10-12T12:39:31.438Z,15.43
2022-10-12T12:42:08.764Z,18.05
2022-10-12T12:44:45.762Z,16.50
2022-10-12T12:50:35.522Z,17.55
2022-10-12T12:53:18.702Z,15.73
2022-10-12T12:56:19.593Z,16.35
2022-10-12T12:59:13.397Z,16.58
2022-10-12T13:02:10.707Z,16.90
2022-10-12T13:04:52.349Z,15.82
2022-10-12T13:07:53.597Z,17.48
2022-10-12T13:10:38.829Z,15.80
2022-10-12T13:13:58.577Z,16.13
2022-10-12T13:19:56.342Z,15.90
2022-10-12T13:22:32.905Z,16.33
2022-10-12T13:25:07.298Z,15.25
2022-10-12T13:27:53.430Z,16.52
2022-10-12T13:30:55.096Z,16.75
2022-10-12T13:33:32.902Z,14.57
2022-10-12T13:36:24.685Z,15.35
2022-10-12T13:38:59.677Z,15.52
2022-10-12T13:41:31.954Z,15.20
2022-10-12T13:44:06.162Z,17.52
2022-10-12T13:46:44.773Z,15.10
2022-10-12T13:49:27.420Z,13.98
2022-10-12T13:52:03.109Z,14.52
2022-10-12T13:54:43.832Z,15.25
2022-10-12T13:57:41.994Z,15.85
2022-10-12T14:00:13.853Z,15.35
2022-10-12T14:02:43.768Z,14.38
2022-10-12T14:05:22.298Z,15.77
2022-10-12T14:07:53.761Z,15.38
2022-10-12T14:10:33.960Z,14.93
2022-10-12T14:13:02.346Z,14.02
2022-10-12T14:15:39.933Z,13.95
2022-10-12T14:18:44.744Z,18.45
2022-10-12T14:21:23.579Z,15.07
2022-10-12T14:24:07.656Z,13.50
2022-10-12T14:26:42.602Z,11.98
2022-10-12T14:29:45.972Z,12.15
2022-10-12T14:32:13.051Z,12.23
2022-10-12T14:34:47.591Z,12.13
2022-10-12T14:37:14.685Z,11.37
2022-10-12T14:39:45.124Z,11.57
2022-10-12T14:42:34.376Z,13.63
2022-10-12T14:45:06.776Z,13.57
2022-10-12T14:47:43.253Z,11.80
2022-10-12T14:50:19.473Z,11.15
2022-10-12T14:52:57.659Z,11.48
2022-10-12T14:55:30.055Z,11.48
2022-10-12T14:57:57.244Z,11.45
2022-10-12T15:00:30.655Z,11.32
2022-10-12T15:02:59.036Z,10.93
2022-10-12T15:05:31.631Z,10.32
2022-10-12T15:08:00.922Z,11.40
2022-10-12T15:10:29.161Z,11.18
2022-10-12T15:12:56.317Z,10.50
2022-10-12T15:15:48.465Z,9.75
2022-10-12T15:18:15.689Z,10.07
2022-10-12T15:20:48.261Z,10.48
2022-10-12T15:23:16.581Z,9.68
2022-10-12T15:25:56.233Z,10.05
2022-10-12T15:28:24.280Z,10.18
2022-10-12T15:31:15.839Z,10.23
2022-10-12T15:33:43.367Z,10.43
2022-10-12T15:36:11.030Z,10.90
2022-10-12T15:38:38.377Z,10.82
2022-10-12T15:41:06.024Z,11.68
2022-10-12T15:43:35.712Z,10.73
2022-10-12T15:46:05.693Z,11.32
2022-10-12T15:48:32.976Z,10.90
2022-10-12T15:51:00.231Z,11.27
2022-10-12T15:53:27.806Z,11.13
2022-10-12T15:55:55.916Z,10.57
2022-10-12T15:58:23.171Z,11.75
2022-10-12T16:00:50.525Z,12.10
2022-10-12T16:03:25.910Z,11.25
2022-10-12T16:05:53.812Z,11.27
2022-10-12T16:08:21.013Z,11.20
2022-10-12T16:10:48.981Z,10.85
2022-10-12T16:13:17.439Z,10.40
2022-10-12T16:15:44.996Z,10.55
2022-10-12T16:18:15.481Z,9.65
2022-10-12T16:20:47.479Z,9.43
2022-10-12T16:23:30.672Z,10.20
2022-10-12T16:25:59.241Z,9.60
2022-10-12T16:28:26.786Z,9.95
2022-10-12T16:30:55.191Z,10.15
2022-10-12T16:33:22.420Z,9.88
2022-10-12T16:35:49.698Z,10.60
2022-10-12T16:38:19.936Z,10.43
2022-10-12T16:40:50.609Z,10.43
2022-10-12T16:43:18.251Z,9.82
2022-10-12T16:45:45.396Z,9.82
2022-10-12T16:48:12.632Z,10.50
2022-10-12T16:50:40.819Z,10.80
2022-10-12T16:53:08.645Z,10.95
2022-10-12T16:55:38.898Z,11.13
2022-10-12T16:58:06.221Z,14.20
2022-10-12T17:00:34.045Z,12.50
2022-10-12T17:03:01.442Z,12.88
2022-10-12T17:05:28.847Z,12.38
2022-10-12T17:07:56.014Z,12.15
2022-10-12T17:10:23.242Z,10.95
2022-10-12T17:12:50.605Z,12.35
2022-10-12T17:15:17.853Z,12.75
2022-10-12T17:17:44.992Z,12.23
2022-10-12T17:20:12.317Z,12.98
2022-10-12T17:22:39.497Z,12.93
2022-10-12T17:25:07.331Z,13.25
2022-10-12T17:27:34.582Z,13.10
2022-10-12T17:30:01.826Z,13.90
2022-10-12T17:32:29.135Z,13.93
2022-10-12T17:34:56.398Z,13.40
2022-10-12T17:37:24.005Z,13.25
2022-10-12T17:39:51.353Z,14.13
2022-10-12T17:42:20.483Z,14.85
2022-10-12T17:44:47.807Z,15.32
2022-10-12T17:47:15.298Z,16.77
2022-10-12T17:49:42.702Z,16.20
2022-10-12T17:52:09.925Z,15.13
2022-10-12T17:54:37.289Z,15.65
2022-10-12T17:57:04.697Z,19.55
2022-10-12T17:59:31.931Z,17.67
2022-10-12T18:01:59.232Z,16.38
2022-10-12T18:04:26.485Z,16.35
2022-10-12T18:06:53.755Z,16.50
2022-10-12T18:09:21.049Z,17.67
2022-10-12T18:11:48.801Z,16.88
2022-10-12T18:14:16.093Z,17.02
2022-10-12T18:16:43.353Z,18.02
2022-10-12T18:19:11.641Z,18.65
2022-10-12T18:21:39.876Z,18.38
2022-10-12T18:24:16.909Z,18.10
2022-10-12T18:26:47.039Z,17.98
2022-10-12T18:29:18.256Z,18.60
2022-10-12T18:31:45.457Z,19.35
2022-10-12T18:34:12.797Z,17.80
2022-10-12T18:36:42.683Z,17.67
2022-10-12T18:39:10.313Z,17.10
2022-10-12T18:41:37.607Z,17.05
2022-10-12T18:44:04.880Z,19.10
2022-10-12T18:46:34.635Z,19.10
2022-10-12T18:49:09.313Z,17.60
2022-10-12T18:51:41.703Z,16.97
2022-10-12T18:54:13.819Z,18.25
2022-10-12T18:56:44.923Z,19.75
2022-10-12T18:59:18.117Z,24.48
2022-10-12T19:02:05.024Z,20.25
2022-10-12T19:04:38.444Z,20.27
2022-10-12T19:07:25.392Z,20.85
2022-10-12T19:10:11.813Z,19.90
2022-10-12T19:12:45.608Z,19.73
2022-10-12T19:15:22.445Z,18.45
2022-10-12T19:24:24.130Z,18.42
2022-10-12T19:31:04.267Z,19.88
2022-10-12T19:34:07.157Z,19.67
2022-10-12T19:36:51.729Z,20.75
2022-10-12T19:39:48.799Z,21.33
2022-10-12T19:42:51.172Z,21.27
2022-10-12T19:45:34.099Z,21.13
2022-10-12T19:48:24.689Z,23.08
2022-10-12T19:51:21.511Z,24.83
2022-10-12T19:54:07.381Z,23.92
2022-10-12T19:56:53.734Z,24.85
2022-10-12T19:59:40.732Z,25.85
2022-10-12T20:02:16.750Z,24.05
2022-10-12T20:05:01.114Z,24.63
2022-10-12T20:07:44.264Z,24.15
2022-10-12T20:10:58.823Z,23.73
2022-10-12T20:14:08.705Z,24.38
2022-10-12T20:16:51.267Z,24.48
2022-10-12T20:19:36.290Z,24.88
2022-10-12T20:22:33.662Z,23.67
2022-10-12T20:25:28.305Z,24.30
2022-10-12T20:28:18.833Z,22.52
2022-10-12T20:30:57.585Z,24.40
2022-10-12T20:34:00.501Z,24.85
2022-10-12T20:36:54.113Z,23.90
2022-10-12T20:39:42.970Z,24.35
2022-10-12T20:42:22.467Z,25.15
2022-10-12T20:45:20.181Z,24.83
2022-10-12T20:48:13.997Z,25.55
2022-10-12T20:51:05.640Z,26.80
2022-10-12T20:53:46.249Z,27.58
2022-10-12T20:56:53.458Z,28.52
2022-10-12T20:59:58.441Z,29.75
2022-10-12T21:02:42.958Z,28.67
2022-10-12T21:05:10.358Z,29.10
2022-10-12T21:07:39.770Z,28.23
2022-10-12T21:10:09.441Z,26.67
2022-10-12T21:12:36.994Z,28.35
2022-10-12T21:15:04.942Z,28.55
2022-10-12T21:17:32.112Z,27.33
2022-10-12T21:19:59.220Z,31.00
2022-10-12T21:22:26.452Z,29.40
2022-10-12T21:24:53.722Z,30.77
2022-10-12T21:27:21.021Z,30.05
2022-10-12T21:29:48.205Z,30.20
2022-10-12T21:32:15.910Z,29.67
2022-10-12T21:34:43.340Z,30.13
2022-10-12T21:37:10.582Z,29.60
2022-10-12T21:39:37.805Z,30.70
2022-10-12T21:42:05.119Z,30.85
2022-10-12T21:44:32.359Z,30.70
2022-10-12T21:46:59.490Z,29.77
2022-10-12T21:49:26.652Z,29.00
2022-10-12T21:51:53.952Z,30.90
2022-10-12T21:54:21.076Z,29.38
2022-10-12T21:56:48.249Z,31.10
2022-10-12T21:59:15.634Z,31.45
2022-10-12T22:01:42.785Z,30.60
2022-10-12T22:04:14.928Z,30.17
2022-10-12T22:06:43.482Z,29.80
2022-10-12T22:09:16.690Z,30.55
2022-10-12T22:11:44.237Z,31.83
2022-10-12T22:14:18.754Z,32.30
2022-10-12T22:16:46.581Z,32.25
2022-10-12T22:19:19.907Z,32.78
2022-10-12T22:21:51.996Z,32.15
2022-10-12T22:24:21.165Z,33.40
2022-10-12T22:26:48.905Z,34.50
2022-10-12T22:29:16.196Z,33.70
2022-10-12T22:31:44.488Z,33.80
2022-10-12T22:34:11.966Z,31.70
2022-10-12T22:36:39.161Z,32.20
2022-10-12T22:39:08.328Z,32.83
2022-10-12T22:41:35.436Z,30.92
2022-10-12T22:44:02.642Z,29.15
2022-10-12T22:46:29.961Z,31.05
2022-10-12T22:48:57.381Z,29.95
2022-10-12T22:51:35.110Z,30.30
2022-10-12T22:54:03.534Z,30.05
2022-10-12T22:56:31.085Z,31.80
2022-10-12T22:59:02.618Z,32.20
2022-10-12T23:01:30.154Z,31.50
2022-10-12T23:03:57.515Z,30.77
2022-10-12T23:06:25.752Z,32.45
2022-10-12T23:08:53.064Z,31.73
2022-10-12T23:11:25.443Z,31.77
2022-10-12T23:13:54.321Z,31.90
2022-10-12T23:16:26.392Z,32.35
2022-10-12T23:19:04.003Z,32.72
2022-10-12T23:21:34.596Z,31.70
2022-10-12T23:24:04.819Z,37.22
2022-10-12T23:26:32.592Z,36.30
2022-10-12T23:28:59.965Z,37.92
2022-10-12T23:31:30.488Z,38.58
2022-10-12T23:34:05.731Z,37.70
2022-10-12T23:36:34.465Z,39.50
2022-10-12T23:39:05.022Z,34.60
2022-10-12T23:41:32.672Z,32.70
2022-10-12T23:43:59.892Z,32.75
2022-10-12T23:46:27.243Z,33.60
2022-10-12T23:48:57.033Z,33.33
2022-10-12T23:51:24.513Z,34.92
2022-10-12T23:53:51.777Z,33.45
2022-10-12T23:56:18.909Z,33.42
2022-10-12T23:58:46.088Z,34.00
